sensor_id;sensor_type;location;lat;lon;timestamp;P1;durP1;ratioP1;P2;durP2;ratioP2
63350;SDS011;64988;51.058;17.040;2023-03-23T00:03:02;30.38;;;18.45;;
63350;SDS011;64988;51.058;17.040;2023-03-23T00:08:28;37.25;;;20.85;;
63350;SDS011;64988;51.058;17.040;2023-03-23T00:13:58;42.72;;;20.75;;
63350;SDS011;64988;51.058;17.040;2023-03-23T00:19:26;35.67;;;20.52;;
63350;SDS011;64988;51.058;17.040;2023-03-23T00:24:52;37.90;;;21.95;;
63350;SDS011;64988;51.058;17.040;2023-03-23T00:30:18;35.60;;;20.50;;
63350;SDS011;64988;51.058;17.040;2023-03-23T00:35:44;34.55;;;19.15;;
63350;SDS011;64988;51.058;17.040;2023-03-23T00:41:10;35.80;;;19.77;;
63350;SDS011;64988;51.058;17.040;2023-03-23T00:46:37;34.78;;;19.50;;
63350;SDS011;64988;51.058;17.040;2023-03-23T00:52:10;37.40;;;19.08;;
63350;SDS011;64988;51.058;17.040;2023-03-23T00:57:37;29.10;;;16.40;;
63350;SDS011;64988;51.058;17.040;2023-03-23T01:03:03;31.20;;;17.00;;
63350;SDS011;64988;51.058;17.040;2023-03-23T01:08:30;37.03;;;19.00;;
63350;SDS011;64988;51.058;17.040;2023-03-23T01:13:57;30.52;;;18.17;;
63350;SDS011;64988;51.058;17.040;2023-03-23T01:19:24;30.40;;;16.65;;
63350;SDS011;64988;51.058;17.040;2023-03-23T01:24:51;33.17;;;17.85;;
63350;SDS011;64988;51.058;17.040;2023-03-23T01:30:18;26.05;;;15.50;;
63350;SDS011;64988;51.058;17.040;2023-03-23T01:35:44;30.00;;;14.68;;
63350;SDS011;64988;51.058;17.040;2023-03-23T01:41:10;32.75;;;15.35;;
63350;SDS011;64988;51.058;17.040;2023-03-23T01:46:38;28.55;;;15.48;;
63350;SDS011;64988;51.058;17.040;2023-03-23T01:52:05;29.27;;;14.85;;
63350;SDS011;64988;51.058;17.040;2023-03-23T01:57:35;30.25;;;14.70;;
63350;SDS011;64988;51.058;17.040;2023-03-23T02:03:01;22.52;;;13.75;;
63350;SDS011;64988;51.058;17.040;2023-03-23T02:08:31;22.73;;;13.90;;
63350;SDS011;64988;51.058;17.040;2023-03-23T02:14:00;24.60;;;13.90;;
63350;SDS011;64988;51.058;17.040;2023-03-23T02:30:58;17.45;;;11.27;;
63350;SDS011;64988;51.058;17.040;2023-03-23T02:36:46;22.38;;;12.82;;
63350;SDS011;64988;51.058;17.040;2023-03-23T02:42:28;19.88;;;12.20;;
63350;SDS011;64988;51.058;17.040;2023-03-23T02:47:59;32.15;;;14.13;;
63350;SDS011;64988;51.058;17.040;2023-03-23T02:53:28;18.13;;;10.85;;
63350;SDS011;64988;51.058;17.040;2023-03-23T02:58:56;22.02;;;10.95;;
63350;SDS011;64988;51.058;17.040;2023-03-23T03:04:24;17.90;;;11.05;;
63350;SDS011;64988;51.058;17.040;2023-03-23T03:09:58;18.23;;;10.98;;
63350;SDS011;64988;51.058;17.040;2023-03-23T03:15:45;18.27;;;11.18;;
63350;SDS011;64988;51.058;17.040;2023-03-23T03:21:15;15.88;;;9.88;;
63350;SDS011;64988;51.058;17.040;2023-03-23T03:26:47;16.02;;;9.98;;
63350;SDS011;64988;51.058;17.040;2023-03-23T03:32:31;18.35;;;10.40;;
63350;SDS011;64988;51.058;17.040;2023-03-23T03:38:06;13.25;;;9.85;;
63350;SDS011;64988;51.058;17.040;2023-03-23T03:43:35;15.88;;;8.43;;
63350;SDS011;64988;51.058;17.040;2023-03-23T03:49:06;13.02;;;8.77;;
63350;SDS011;64988;51.058;17.040;2023-03-23T03:54:36;13.35;;;9.52;;
63350;SDS011;64988;51.058;17.040;2023-03-23T04:00:03;14.20;;;8.60;;
63350;SDS011;64988;51.058;17.040;2023-03-23T04:05:39;17.20;;;9.32;;
63350;SDS011;64988;51.058;17.040;2023-03-23T04:11:10;14.07;;;8.80;;
63350;SDS011;64988;51.058;17.040;2023-03-23T04:16:37;15.00;;;9.00;;
63350;SDS011;64988;51.058;17.040;2023-03-23T04:22:04;13.35;;;8.82;;
63350;SDS011;64988;51.058;17.040;2023-03-23T04:27:33;15.27;;;9.02;;
63350;SDS011;64988;51.058;17.040;2023-03-23T04:33:03;15.82;;;8.93;;
63350;SDS011;64988;51.058;17.040;2023-03-23T04:38:29;14.15;;;8.75;;
63350;SDS011;64988;51.058;17.040;2023-03-23T04:44:05;11.57;;;8.52;;
63350;SDS011;64988;51.058;17.040;2023-03-23T04:49:38;15.55;;;8.95;;
63350;SDS011;64988;51.058;17.040;2023-03-23T04:55:23;13.73;;;8.32;;
63350;SDS011;64988;51.058;17.040;2023-03-23T05:00:56;10.75;;;7.50;;
63350;SDS011;64988;51.058;17.040;2023-03-23T05:06:24;15.63;;;7.95;;
63350;SDS011;64988;51.058;17.040;2023-03-23T05:11:56;13.05;;;7.45;;
63350;SDS011;64988;51.058;17.040;2023-03-23T05:17:25;12.45;;;7.00;;
63350;SDS011;64988;51.058;17.040;2023-03-23T05:22:56;14.75;;;7.78;;
63350;SDS011;64988;51.058;17.040;2023-03-23T05:28:33;11.88;;;7.07;;
63350;SDS011;64988;51.058;17.040;2023-03-23T05:34:08;12.60;;;6.97;;
63350;SDS011;64988;51.058;17.040;2023-03-23T05:39:48;8.88;;;6.13;;
63350;SDS011;64988;51.058;17.040;2023-03-23T05:45:23;11.65;;;5.28;;
63350;SDS011;64988;51.058;17.040;2023-03-23T05:50:51;8.65;;;6.30;;
63350;SDS011;64988;51.058;17.040;2023-03-23T05:56:21;10.52;;;5.75;;
63350;SDS011;64988;51.058;17.040;2023-03-23T06:02:06;10.13;;;5.70;;
63350;SDS011;64988;51.058;17.040;2023-03-23T06:07:33;11.57;;;5.53;;
63350;SDS011;64988;51.058;17.040;2023-03-23T06:13:04;10.77;;;5.10;;
63350;SDS011;64988;51.058;17.040;2023-03-23T06:18:42;12.52;;;5.15;;
63350;SDS011;64988;51.058;17.040;2023-03-23T06:24:29;9.90;;;5.25;;
63350;SDS011;64988;51.058;17.040;2023-03-23T06:29:55;6.05;;;5.03;;
63350;SDS011;64988;51.058;17.040;2023-03-23T06:35:23;7.95;;;5.15;;
63350;SDS011;64988;51.058;17.040;2023-03-23T06:41:21;8.65;;;4.65;;
63350;SDS011;64988;51.058;17.040;2023-03-23T06:46:47;6.88;;;4.75;;
63350;SDS011;64988;51.058;17.040;2023-03-23T06:52:35;9.32;;;5.18;;
63350;SDS011;64988;51.058;17.040;2023-03-23T06:58:02;10.90;;;5.05;;
63350;SDS011;64988;51.058;17.040;2023-03-23T07:03:28;7.43;;;4.68;;
63350;SDS011;64988;51.058;17.040;2023-03-23T07:08:58;6.85;;;4.18;;
63350;SDS011;64988;51.058;17.040;2023-03-23T07:14:27;10.65;;;4.88;;
63350;SDS011;64988;51.058;17.040;2023-03-23T07:19:53;8.75;;;4.50;;
63350;SDS011;64988;51.058;17.040;2023-03-23T07:25:20;8.18;;;4.53;;
63350;SDS011;64988;51.058;17.040;2023-03-23T07:30:52;5.95;;;4.25;;
63350;SDS011;64988;51.058;17.040;2023-03-23T07:36:19;10.73;;;5.60;;
63350;SDS011;64988;51.058;17.040;2023-03-23T07:41:46;7.95;;;5.30;;
63350;SDS011;64988;51.058;17.040;2023-03-23T07:47:27;12.52;;;5.60;;
63350;SDS011;64988;51.058;17.040;2023-03-23T07:52:55;11.27;;;5.53;;
63350;SDS011;64988;51.058;17.040;2023-03-23T07:58:24;7.72;;;5.03;;
63350;SDS011;64988;51.058;17.040;2023-03-23T08:03:54;7.32;;;4.93;;
63350;SDS011;64988;51.058;17.040;2023-03-23T08:09:46;10.15;;;5.32;;
63350;SDS011;64988;51.058;17.040;2023-03-23T08:15:32;7.45;;;5.05;;
63350;SDS011;64988;51.058;17.040;2023-03-23T08:21:31;11.35;;;6.53;;
63350;SDS011;64988;51.058;17.040;2023-03-23T08:27:31;10.05;;;5.18;;
63350;SDS011;64988;51.058;17.040;2023-03-23T08:33:27;8.05;;;5.75;;
63350;SDS011;64988;51.058;17.040;2023-03-23T08:39:19;7.10;;;4.53;;
63350;SDS011;64988;51.058;17.040;2023-03-23T08:45:16;7.90;;;4.93;;
63350;SDS011;64988;51.058;17.040;2023-03-23T08:50:53;6.80;;;4.30;;
63350;SDS011;64988;51.058;17.040;2023-03-23T08:56:33;4.80;;;3.50;;
63350;SDS011;64988;51.058;17.040;2023-03-23T09:02:26;10.13;;;3.40;;
63350;SDS011;64988;51.058;17.040;2023-03-23T09:08:02;9.05;;;3.22;;
63350;SDS011;64988;51.058;17.040;2023-03-23T09:13:29;5.40;;;3.05;;
63350;SDS011;64988;51.058;17.040;2023-03-23T09:18:56;5.13;;;2.53;;
63350;SDS011;64988;51.058;17.040;2023-03-23T09:24:23;5.78;;;2.92;;
63350;SDS011;64988;51.058;17.040;2023-03-23T09:29:50;8.35;;;3.55;;
63350;SDS011;64988;51.058;17.040;2023-03-23T09:35:16;7.40;;;3.08;;
63350;SDS011;64988;51.058;17.040;2023-03-23T09:40:45;8.95;;;3.08;;
63350;SDS011;64988;51.058;17.040;2023-03-23T09:52:13;4.72;;;2.53;;
63350;SDS011;64988;51.058;17.040;2023-03-23T10:03:21;4.13;;;2.50;;
63350;SDS011;64988;51.058;17.040;2023-03-23T10:08:52;5.88;;;2.75;;
63350;SDS011;64988;51.058;17.040;2023-03-23T10:26:04;4.75;;;2.60;;
63350;SDS011;64988;51.058;17.040;2023-03-23T10:31:41;4.05;;;2.88;;
63350;SDS011;64988;51.058;17.040;2023-03-23T10:37:31;4.30;;;2.60;;
63350;SDS011;64988;51.058;17.040;2023-03-23T10:43:02;3.60;;;2.10;;
63350;SDS011;64988;51.058;17.040;2023-03-23T10:48:32;4.30;;;1.50;;
63350;SDS011;64988;51.058;17.040;2023-03-23T10:54:03;6.38;;;1.70;;
63350;SDS011;64988;51.058;17.040;2023-03-23T10:59:31;3.53;;;1.48;;
63350;SDS011;64988;51.058;17.040;2023-03-23T11:05:00;5.65;;;1.65;;
63350;SDS011;64988;51.058;17.040;2023-03-23T11:10:35;6.07;;;1.30;;
63350;SDS011;64988;51.058;17.040;2023-03-23T11:16:03;3.05;;;1.80;;
63350;SDS011;64988;51.058;17.040;2023-03-23T11:21:31;2.08;;;1.52;;
63350;SDS011;64988;51.058;17.040;2023-03-23T11:26:58;2.42;;;1.67;;
63350;SDS011;64988;51.058;17.040;2023-03-23T11:32:26;4.80;;;1.75;;
63350;SDS011;64988;51.058;17.040;2023-03-23T11:37:54;1.65;;;1.40;;
63350;SDS011;64988;51.058;17.040;2023-03-23T11:43:24;2.25;;;1.10;;
63350;SDS011;64988;51.058;17.040;2023-03-23T11:49:00;3.08;;;1.77;;
63350;SDS011;64988;51.058;17.040;2023-03-23T11:54:33;3.38;;;1.50;;
63350;SDS011;64988;51.058;17.040;2023-03-23T12:00:17;10.68;;;2.40;;
63350;SDS011;64988;51.058;17.040;2023-03-23T12:05:48;2.17;;;1.58;;
63350;SDS011;64988;51.058;17.040;2023-03-23T12:28:56;3.55;;;1.40;;
63350;SDS011;64988;51.058;17.040;2023-03-23T12:40:32;4.20;;;1.90;;
63350;SDS011;64988;51.058;17.040;2023-03-23T12:52:10;3.00;;;1.83;;
63350;SDS011;64988;51.058;17.040;2023-03-23T13:26:21;4.88;;;2.10;;
63350;SDS011;64988;51.058;17.040;2023-03-23T13:31:49;8.88;;;2.30;;
63350;SDS011;64988;51.058;17.040;2023-03-23T13:42:52;4.30;;;3.08;;
63350;SDS011;64988;51.058;17.040;2023-03-23T13:48:23;6.22;;;2.67;;
63350;SDS011;64988;51.058;17.040;2023-03-23T13:53:50;5.18;;;2.78;;
63350;SDS011;64988;51.058;17.040;2023-03-23T14:00:10;6.55;;;3.03;;
63350;SDS011;64988;51.058;17.040;2023-03-23T14:10:48;11.00;;;3.67;;
63350;SDS011;64988;51.058;17.040;2023-03-23T14:16:40;6.90;;;3.20;;
63350;SDS011;64988;51.058;17.040;2023-03-23T14:22:16;9.50;;;3.75;;
63350;SDS011;64988;51.058;17.040;2023-03-23T14:27:53;6.55;;;2.88;;
63350;SDS011;64988;51.058;17.040;2023-03-23T14:33:22;6.32;;;2.70;;
63350;SDS011;64988;51.058;17.040;2023-03-23T14:39:12;3.92;;;3.05;;
63350;SDS011;64988;51.058;17.040;2023-03-23T14:44:59;6.50;;;2.72;;
63350;SDS011;64988;51.058;17.040;2023-03-23T14:50:35;6.33;;;3.30;;
63350;SDS011;64988;51.058;17.040;2023-03-23T14:56:11;4.88;;;2.97;;
63350;SDS011;64988;51.058;17.040;2023-03-23T15:01:41;5.75;;;3.85;;
63350;SDS011;64988;51.058;17.040;2023-03-23T15:07:12;5.47;;;3.20;;
63350;SDS011;64988;51.058;17.040;2023-03-23T15:12:43;7.75;;;3.47;;
63350;SDS011;64988;51.058;17.040;2023-03-23T15:24:24;11.60;;;6.18;;
63350;SDS011;64988;51.058;17.040;2023-03-23T15:29:58;7.57;;;4.60;;
63350;SDS011;64988;51.058;17.040;2023-03-23T15:35:32;8.98;;;3.58;;
63350;SDS011;64988;51.058;17.040;2023-03-23T15:41:20;5.67;;;3.50;;
63350;SDS011;64988;51.058;17.040;2023-03-23T15:47:10;7.03;;;4.65;;
63350;SDS011;64988;51.058;17.040;2023-03-23T15:52:48;18.30;;;6.70;;
63350;SDS011;64988;51.058;17.040;2023-03-23T15:58:15;12.35;;;4.80;;
63350;SDS011;64988;51.058;17.040;2023-03-23T16:03:49;8.88;;;5.53;;
63350;SDS011;64988;51.058;17.040;2023-03-23T16:09:24;7.90;;;4.57;;
63350;SDS011;64988;51.058;17.040;2023-03-23T16:14:54;9.75;;;4.57;;
63350;SDS011;64988;51.058;17.040;2023-03-23T16:20:33;10.88;;;4.35;;
63350;SDS011;64988;51.058;17.040;2023-03-23T16:26:02;7.95;;;4.93;;
63350;SDS011;64988;51.058;17.040;2023-03-23T16:31:33;9.05;;;4.65;;
63350;SDS011;64988;51.058;17.040;2023-03-23T16:37:01;9.90;;;4.70;;
63350;SDS011;64988;51.058;17.040;2023-03-23T16:42:29;6.97;;;4.25;;
63350;SDS011;64988;51.058;17.040;2023-03-23T16:47:57;14.00;;;4.50;;
63350;SDS011;64988;51.058;17.040;2023-03-23T16:53:37;7.03;;;4.00;;
63350;SDS011;64988;51.058;17.040;2023-03-23T16:59:05;9.15;;;5.55;;
63350;SDS011;64988;51.058;17.040;2023-03-23T17:04:36;21.58;;;4.70;;
63350;SDS011;64988;51.058;17.040;2023-03-23T17:10:09;11.13;;;5.50;;
63350;SDS011;64988;51.058;17.040;2023-03-23T17:15:38;11.75;;;5.32;;
63350;SDS011;64988;51.058;17.040;2023-03-23T17:21:11;8.45;;;4.78;;
63350;SDS011;64988;51.058;17.040;2023-03-23T17:26:39;13.23;;;5.72;;
63350;SDS011;64988;51.058;17.040;2023-03-23T17:32:07;6.38;;;4.10;;
63350;SDS011;64988;51.058;17.040;2023-03-23T17:37:35;8.55;;;4.47;;
63350;SDS011;64988;51.058;17.040;2023-03-23T17:43:05;8.23;;;5.07;;
63350;SDS011;64988;51.058;17.040;2023-03-23T17:48:35;12.95;;;5.35;;
63350;SDS011;64988;51.058;17.040;2023-03-23T17:54:03;12.77;;;5.65;;
63350;SDS011;64988;51.058;17.040;2023-03-23T17:59:32;14.30;;;5.88;;
63350;SDS011;64988;51.058;17.040;2023-03-23T18:05:00;10.88;;;5.85;;
63350;SDS011;64988;51.058;17.040;2023-03-23T18:10:28;7.53;;;5.47;;
63350;SDS011;64988;51.058;17.040;2023-03-23T18:15:56;14.18;;;6.88;;
63350;SDS011;64988;51.058;17.040;2023-03-23T18:21:24;13.57;;;7.03;;
63350;SDS011;64988;51.058;17.040;2023-03-23T18:26:53;14.38;;;7.10;;
63350;SDS011;64988;51.058;17.040;2023-03-23T18:32:22;13.57;;;7.93;;
63350;SDS011;64988;51.058;17.040;2023-03-23T18:37:49;17.75;;;8.65;;
63350;SDS011;64988;51.058;17.040;2023-03-23T18:43:17;21.30;;;9.93;;
63350;SDS011;64988;51.058;17.040;2023-03-23T18:48:45;17.83;;;10.60;;
63350;SDS011;64988;51.058;17.040;2023-03-23T18:54:13;21.80;;;9.95;;
63350;SDS011;64988;51.058;17.040;2023-03-23T18:59:40;29.23;;;13.07;;
63350;SDS011;64988;51.058;17.040;2023-03-23T19:05:09;25.70;;;10.88;;
63350;SDS011;64988;51.058;17.040;2023-03-23T19:10:39;18.35;;;9.02;;
63350;SDS011;64988;51.058;17.040;2023-03-23T19:16:08;16.45;;;8.77;;
63350;SDS011;64988;51.058;17.040;2023-03-23T19:21:48;17.08;;;8.15;;
63350;SDS011;64988;51.058;17.040;2023-03-23T19:27:15;15.68;;;7.80;;
63350;SDS011;64988;51.058;17.040;2023-03-23T19:32:44;21.25;;;9.10;;
63350;SDS011;64988;51.058;17.040;2023-03-23T19:38:12;16.25;;;8.50;;
63350;SDS011;64988;51.058;17.040;2023-03-23T19:43:40;16.67;;;8.82;;
63350;SDS011;64988;51.058;17.040;2023-03-23T19:49:10;13.07;;;7.53;;
63350;SDS011;64988;51.058;17.040;2023-03-23T19:54:38;16.40;;;7.97;;
63350;SDS011;64988;51.058;17.040;2023-03-23T20:00:09;15.52;;;8.90;;
63350;SDS011;64988;51.058;17.040;2023-03-23T20:05:39;16.15;;;7.90;;
63350;SDS011;64988;51.058;17.040;2023-03-23T20:11:09;15.50;;;8.43;;
63350;SDS011;64988;51.058;17.040;2023-03-23T20:16:38;17.42;;;8.25;;
63350;SDS011;64988;51.058;17.040;2023-03-23T20:22:08;15.07;;;8.05;;
63350;SDS011;64988;51.058;17.040;2023-03-23T20:27:43;12.65;;;7.82;;
63350;SDS011;64988;51.058;17.040;2023-03-23T20:33:19;15.48;;;7.72;;
63350;SDS011;64988;51.058;17.040;2023-03-23T20:38:48;13.35;;;7.95;;
63350;SDS011;64988;51.058;17.040;2023-03-23T20:44:24;19.40;;;9.25;;
63350;SDS011;64988;51.058;17.040;2023-03-23T20:50:00;15.48;;;8.23;;
63350;SDS011;64988;51.058;17.040;2023-03-23T20:55:29;12.52;;;8.45;;
63350;SDS011;64988;51.058;17.040;2023-03-23T21:00:59;13.13;;;8.93;;
63350;SDS011;64988;51.058;17.040;2023-03-23T21:12:01;17.75;;;9.48;;
63350;SDS011;64988;51.058;17.040;2023-03-23T21:17:31;16.00;;;9.43;;
63350;SDS011;64988;51.058;17.040;2023-03-23T21:23:00;16.02;;;8.88;;
63350;SDS011;64988;51.058;17.040;2023-03-23T21:28:36;14.40;;;8.07;;
63350;SDS011;64988;51.058;17.040;2023-03-23T21:34:04;15.32;;;8.38;;
63350;SDS011;64988;51.058;17.040;2023-03-23T21:39:33;17.60;;;8.52;;
63350;SDS011;64988;51.058;17.040;2023-03-23T21:45:03;17.52;;;8.43;;
63350;SDS011;64988;51.058;17.040;2023-03-23T21:50:33;18.58;;;8.70;;
63350;SDS011;64988;51.058;17.040;2023-03-23T21:56:05;13.43;;;8.77;;
63350;SDS011;64988;51.058;17.040;2023-03-23T22:01:36;16.23;;;8.27;;
63350;SDS011;64988;51.058;17.040;2023-03-23T22:07:04;11.55;;;7.85;;
63350;SDS011;64988;51.058;17.040;2023-03-23T22:12:32;17.40;;;8.95;;
63350;SDS011;64988;51.058;17.040;2023-03-23T22:17:59;15.18;;;8.45;;
63350;SDS011;64988;51.058;17.040;2023-03-23T22:23:28;13.48;;;7.82;;
63350;SDS011;64988;51.058;17.040;2023-03-23T22:28:55;10.30;;;6.90;;
63350;SDS011;64988;51.058;17.040;2023-03-23T22:34:24;10.73;;;6.03;;
63350;SDS011;64988;51.058;17.040;2023-03-23T22:39:52;11.98;;;6.63;;
63350;SDS011;64988;51.058;17.040;2023-03-23T22:45:19;13.55;;;6.65;;
63350;SDS011;64988;51.058;17.040;2023-03-23T22:50:47;8.05;;;5.53;;
63350;SDS011;64988;51.058;17.040;2023-03-23T22:56:15;9.90;;;6.45;;
63350;SDS011;64988;51.058;17.040;2023-03-23T23:01:43;10.18;;;6.28;;
63350;SDS011;64988;51.058;17.040;2023-03-23T23:07:11;11.55;;;6.40;;
63350;SDS011;64988;51.058;17.040;2023-03-23T23:12:40;14.20;;;5.93;;
63350;SDS011;64988;51.058;17.040;2023-03-23T23:18:08;8.70;;;5.88;;
63350;SDS011;64988;51.058;17.040;2023-03-23T23:23:37;9.05;;;5.63;;
63350;SDS011;64988;51.058;17.040;2023-03-23T23:29:05;9.02;;;5.07;;
63350;SDS011;64988;51.058;17.040;2023-03-23T23:34:32;10.52;;;5.57;;
63350;SDS011;64988;51.058;17.040;2023-03-23T23:40:00;7.75;;;4.90;;
63350;SDS011;64988;51.058;17.040;2023-03-23T23:45:27;7.32;;;4.32;;
63350;SDS011;64988;51.058;17.040;2023-03-23T23:50:55;6.35;;;4.40;;
63350;SDS011;64988;51.058;17.040;2023-03-23T23:56:22;6.18;;;4.65;;
